Main page
METAR-TAF:

METAR-TAF

Airports :

Mécheria Airport

Mécheria, Algeria

latitude: 34-56N, longitude: 000-26W, elevation: 1149 m

Current weather observation

The report was made 20 minutes ago, at 20:00 UTC
Wind 10 kt from the Northeast
Temperature 4°C
Humidity 60%
Pressure 1025 hPa
Visibility 10 km or more
Scattered clouds at a height of 2600 ft

METAR: DAAY 212000Z 05010KT 9999 SCT026 04/M03 Q1025

Time: 21:20 (20:20 UTC)

Forecast

The report was made 3 hours and 20 minutes ago, at 17:00 UTC
Forecast valid from 21 at 18 UTC to 22 at 03 UTC
Wind 8 kt from the North/Northwest
Visibility 10 km or more
Few clouds at a height of 2600 ft
Becoming
from 21 at 19 UTC to 21 at 22 UTC
Wind 2 kt from variable directions

TAF: DAAY 211700Z 2118/2203 34008KT 9999 FEW026 BECMG 2119/2122 VRB02KT

Weather observations and forecasts of more than 4000 airports (METAR and TAF reports).

The available stations are represented by yellow and red dots on the map.

Hover mouse over dot to see the name of the station.

Then click to see weather observations and forecasts.

To change the map : click on the green buttons with a black cross to zoom in, on the green button with a dash to zoom out, or on the green arrows for adjacent maps.


METAR-TAF: